sensor_id;sensor_type;location;lat;lon;timestamp;pressure;altitude;pressure_sealevel;temperature
24201;BMP280;2801;50.972;7.856;2022-10-16T00:01:40;97167.06;;;12.12
24201;BMP280;2801;50.972;7.856;2022-10-16T00:04:07;97175.22;;;12.16
24201;BMP280;2801;50.972;7.856;2022-10-16T00:06:33;97178.88;;;12.23
24201;BMP280;2801;50.972;7.856;2022-10-16T00:09:00;97161.31;;;12.26
24201;BMP280;2801;50.972;7.856;2022-10-16T00:11:33;97170.34;;;12.33
24201;BMP280;2801;50.972;7.856;2022-10-16T00:14:12;97159.25;;;12.35
24201;BMP280;2801;50.972;7.856;2022-10-16T00:16:40;97149.66;;;12.34
24201;BMP280;2801;50.972;7.856;2022-10-16T00:19:07;97161.69;;;12.40
24201;BMP280;2801;50.972;7.856;2022-10-16T00:21:34;97172.13;;;12.41
24201;BMP280;2801;50.972;7.856;2022-10-16T00:24:05;97178.72;;;12.44
24201;BMP280;2801;50.972;7.856;2022-10-16T00:26:35;97179.16;;;12.46
24201;BMP280;2801;50.972;7.856;2022-10-16T00:29:02;97182.19;;;12.44
24201;BMP280;2801;50.972;7.856;2022-10-16T00:31:30;97182.28;;;12.48
24201;BMP280;2801;50.972;7.856;2022-10-16T00:33:57;97185.44;;;12.50
24201;BMP280;2801;50.972;7.856;2022-10-16T00:36:26;97174.66;;;12.50
24201;BMP280;2801;50.972;7.856;2022-10-16T00:38:55;97175.81;;;12.49
24201;BMP280;2801;50.972;7.856;2022-10-16T00:41:25;97181.50;;;12.47
24201;BMP280;2801;50.972;7.856;2022-10-16T00:43:56;97184.97;;;12.48
24201;BMP280;2801;50.972;7.856;2022-10-16T00:46:37;97192.81;;;12.53
24201;BMP280;2801;50.972;7.856;2022-10-16T00:49:16;97182.16;;;12.56
24201;BMP280;2801;50.972;7.856;2022-10-16T00:51:47;97183.63;;;12.54
24201;BMP280;2801;50.972;7.856;2022-10-16T00:54:21;97190.66;;;12.58
24201;BMP280;2801;50.972;7.856;2022-10-16T00:56:50;97196.47;;;12.60
24201;BMP280;2801;50.972;7.856;2022-10-16T00:59:31;97198.81;;;12.62
24201;BMP280;2801;50.972;7.856;2022-10-16T01:01:59;97196.25;;;12.65
24201;BMP280;2801;50.972;7.856;2022-10-16T01:04:29;97203.59;;;12.68
24201;BMP280;2801;50.972;7.856;2022-10-16T01:10:14;97196.63;;;12.79
24201;BMP280;2801;50.972;7.856;2022-10-16T01:12:48;97200.50;;;12.94
24201;BMP280;2801;50.972;7.856;2022-10-16T01:15:41;97200.72;;;13.01
24201;BMP280;2801;50.972;7.856;2022-10-16T01:21:04;97195.78;;;13.18
24201;BMP280;2801;50.972;7.856;2022-10-16T01:24:03;97192.50;;;13.25
24201;BMP280;2801;50.972;7.856;2022-10-16T01:33:06;97209.97;;;13.31
24201;BMP280;2801;50.972;7.856;2022-10-16T01:35:55;97213.53;;;13.35
24201;BMP280;2801;50.972;7.856;2022-10-16T01:38:38;97208.22;;;13.38
24201;BMP280;2801;50.972;7.856;2022-10-16T01:41:21;97213.94;;;13.37
24201;BMP280;2801;50.972;7.856;2022-10-16T01:44:04;97212.03;;;13.37
24201;BMP280;2801;50.972;7.856;2022-10-16T01:46:36;97205.06;;;13.36
24201;BMP280;2801;50.972;7.856;2022-10-16T01:49:06;97197.38;;;13.35
24201;BMP280;2801;50.972;7.856;2022-10-16T01:51:35;97199.53;;;13.29
24201;BMP280;2801;50.972;7.856;2022-10-16T01:54:07;97194.50;;;13.28
24201;BMP280;2801;50.972;7.856;2022-10-16T01:56:36;97181.72;;;13.25
24201;BMP280;2801;50.972;7.856;2022-10-16T01:59:16;97199.00;;;13.24
24201;BMP280;2801;50.972;7.856;2022-10-16T02:01:51;97191.63;;;13.21
24201;BMP280;2801;50.972;7.856;2022-10-16T02:04:30;97200.13;;;13.23
24201;BMP280;2801;50.972;7.856;2022-10-16T02:06:59;97207.16;;;13.27
24201;BMP280;2801;50.972;7.856;2022-10-16T02:09:26;97222.97;;;13.29
24201;BMP280;2801;50.972;7.856;2022-10-16T02:11:56;97219.25;;;13.33
24201;BMP280;2801;50.972;7.856;2022-10-16T02:14:26;97212.38;;;13.36
24201;BMP280;2801;50.972;7.856;2022-10-16T02:16:53;97211.25;;;13.37
24201;BMP280;2801;50.972;7.856;2022-10-16T02:19:21;97220.72;;;13.46
24201;BMP280;2801;50.972;7.856;2022-10-16T02:21:54;97224.81;;;13.56
24201;BMP280;2801;50.972;7.856;2022-10-16T02:24:33;97204.56;;;13.62
24201;BMP280;2801;50.972;7.856;2022-10-16T02:29:40;97220.19;;;13.72
24201;BMP280;2801;50.972;7.856;2022-10-16T02:32:15;97222.31;;;13.78
24201;BMP280;2801;50.972;7.856;2022-10-16T02:34:45;97226.56;;;13.79
24201;BMP280;2801;50.972;7.856;2022-10-16T02:37:12;97218.63;;;13.86
24201;BMP280;2801;50.972;7.856;2022-10-16T02:39:40;97215.25;;;13.89
24201;BMP280;2801;50.972;7.856;2022-10-16T02:42:15;97216.13;;;13.93
24201;BMP280;2801;50.972;7.856;2022-10-16T02:44:44;97226.97;;;13.97
24201;BMP280;2801;50.972;7.856;2022-10-16T02:47:10;97229.72;;;14.00
24201;BMP280;2801;50.972;7.856;2022-10-16T02:49:43;97224.34;;;14.00
24201;BMP280;2801;50.972;7.856;2022-10-16T02:52:10;97224.44;;;14.04
24201;BMP280;2801;50.972;7.856;2022-10-16T02:54:36;97226.34;;;14.03
24201;BMP280;2801;50.972;7.856;2022-10-16T02:57:03;97233.38;;;14.08
24201;BMP280;2801;50.972;7.856;2022-10-16T02:59:30;97227.28;;;14.11
24201;BMP280;2801;50.972;7.856;2022-10-16T03:01:57;97222.31;;;14.13
24201;BMP280;2801;50.972;7.856;2022-10-16T03:04:23;97220.69;;;14.08
24201;BMP280;2801;50.972;7.856;2022-10-16T03:06:50;97248.50;;;14.12
24201;BMP280;2801;50.972;7.856;2022-10-16T03:09:17;97241.28;;;14.16
24201;BMP280;2801;50.972;7.856;2022-10-16T03:11:43;97230.50;;;14.16
24201;BMP280;2801;50.972;7.856;2022-10-16T03:14:10;97226.59;;;14.14
24201;BMP280;2801;50.972;7.856;2022-10-16T03:16:37;97243.63;;;14.18
24201;BMP280;2801;50.972;7.856;2022-10-16T03:19:04;97233.97;;;14.17
24201;BMP280;2801;50.972;7.856;2022-10-16T03:21:30;97234.75;;;14.17
24201;BMP280;2801;50.972;7.856;2022-10-16T03:23:57;97230.91;;;14.18
24201;BMP280;2801;50.972;7.856;2022-10-16T03:26:24;97232.00;;;14.14
24201;BMP280;2801;50.972;7.856;2022-10-16T03:28:51;97230.84;;;14.15
24201;BMP280;2801;50.972;7.856;2022-10-16T03:31:17;97215.03;;;14.13
24201;BMP280;2801;50.972;7.856;2022-10-16T03:33:44;97223.97;;;14.17
24201;BMP280;2801;50.972;7.856;2022-10-16T03:36:11;97227.72;;;14.13
24201;BMP280;2801;50.972;7.856;2022-10-16T03:38:38;97225.75;;;14.10
24201;BMP280;2801;50.972;7.856;2022-10-16T03:41:04;97224.16;;;14.09
24201;BMP280;2801;50.972;7.856;2022-10-16T03:43:31;97224.94;;;14.09
24201;BMP280;2801;50.972;7.856;2022-10-16T03:45:58;97219.97;;;14.11
24201;BMP280;2801;50.972;7.856;2022-10-16T03:48:25;97235.38;;;14.11
24201;BMP280;2801;50.972;7.856;2022-10-16T03:50:51;97241.13;;;14.09
24201;BMP280;2801;50.972;7.856;2022-10-16T03:53:18;97214.22;;;14.13
24201;BMP280;2801;50.972;7.856;2022-10-16T03:55:45;97198.06;;;14.13
24201;BMP280;2801;50.972;7.856;2022-10-16T03:58:12;97202.94;;;14.07
24201;BMP280;2801;50.972;7.856;2022-10-16T04:00:43;97221.41;;;14.05
24201;BMP280;2801;50.972;7.856;2022-10-16T04:03:11;97212.78;;;14.00
24201;BMP280;2801;50.972;7.856;2022-10-16T04:05:39;97206.19;;;13.97
24201;BMP280;2801;50.972;7.856;2022-10-16T04:08:06;97210.78;;;13.97
24201;BMP280;2801;50.972;7.856;2022-10-16T04:10:33;97211.41;;;13.90
24201;BMP280;2801;50.972;7.856;2022-10-16T04:12:59;97210.09;;;13.84
24201;BMP280;2801;50.972;7.856;2022-10-16T04:15:26;97213.88;;;13.80
24201;BMP280;2801;50.972;7.856;2022-10-16T04:17:53;97218.38;;;13.76
24201;BMP280;2801;50.972;7.856;2022-10-16T04:20:20;97228.38;;;13.75
24201;BMP280;2801;50.972;7.856;2022-10-16T04:22:47;97233.31;;;13.73
24201;BMP280;2801;50.972;7.856;2022-10-16T04:25:14;97241.06;;;13.75
24201;BMP280;2801;50.972;7.856;2022-10-16T04:27:40;97251.06;;;13.74
24201;BMP280;2801;50.972;7.856;2022-10-16T04:30:12;97262.19;;;13.73
24201;BMP280;2801;50.972;7.856;2022-10-16T04:32:40;97268.69;;;13.72
24201;BMP280;2801;50.972;7.856;2022-10-16T04:35:07;97281.47;;;13.75
24201;BMP280;2801;50.972;7.856;2022-10-16T04:37:34;97281.47;;;13.75
24201;BMP280;2801;50.972;7.856;2022-10-16T04:40:01;97262.25;;;13.76
24201;BMP280;2801;50.972;7.856;2022-10-16T04:42:27;97262.59;;;13.75
24201;BMP280;2801;50.972;7.856;2022-10-16T04:44:54;97255.66;;;13.74
24201;BMP280;2801;50.972;7.856;2022-10-16T04:47:21;97263.22;;;13.68
24201;BMP280;2801;50.972;7.856;2022-10-16T04:49:48;97264.69;;;13.66
24201;BMP280;2801;50.972;7.856;2022-10-16T04:52:14;97261.22;;;13.65
24201;BMP280;2801;50.972;7.856;2022-10-16T04:54:41;97255.84;;;13.65
24201;BMP280;2801;50.972;7.856;2022-10-16T04:57:08;97263.03;;;13.61
24201;BMP280;2801;50.972;7.856;2022-10-16T04:59:35;97265.31;;;13.59
24201;BMP280;2801;50.972;7.856;2022-10-16T05:02:02;97264.06;;;13.57
24201;BMP280;2801;50.972;7.856;2022-10-16T05:04:29;97270.59;;;13.56
24201;BMP280;2801;50.972;7.856;2022-10-16T05:06:56;97269.84;;;13.55
24201;BMP280;2801;50.972;7.856;2022-10-16T05:09:22;97272.41;;;13.52
24201;BMP280;2801;50.972;7.856;2022-10-16T05:11:49;97289.78;;;13.54
24201;BMP280;2801;50.972;7.856;2022-10-16T05:14:16;97276.31;;;13.54
24201;BMP280;2801;50.972;7.856;2022-10-16T05:16:43;97280.16;;;13.53
24201;BMP280;2801;50.972;7.856;2022-10-16T05:19:09;97283.97;;;13.52
24201;BMP280;2801;50.972;7.856;2022-10-16T05:21:54;97287.19;;;13.58
24201;BMP280;2801;50.972;7.856;2022-10-16T05:24:21;97284.06;;;13.56
24201;BMP280;2801;50.972;7.856;2022-10-16T05:26:47;97292.25;;;13.59
24201;BMP280;2801;50.972;7.856;2022-10-16T05:29:14;97300.34;;;13.59
24201;BMP280;2801;50.972;7.856;2022-10-16T05:31:41;97299.53;;;13.59
24201;BMP280;2801;50.972;7.856;2022-10-16T05:34:08;97298.59;;;13.67
24201;BMP280;2801;50.972;7.856;2022-10-16T05:36:35;97296.22;;;13.65
24201;BMP280;2801;50.972;7.856;2022-10-16T05:39:02;97291.03;;;13.72
24201;BMP280;2801;50.972;7.856;2022-10-16T05:41:29;97308.75;;;13.73
24201;BMP280;2801;50.972;7.856;2022-10-16T05:43:55;97299.19;;;13.76
24201;BMP280;2801;50.972;7.856;2022-10-16T05:46:22;97297.28;;;13.76
24201;BMP280;2801;50.972;7.856;2022-10-16T05:48:52;97302.69;;;13.76
24201;BMP280;2801;50.972;7.856;2022-10-16T05:51:19;97319.38;;;13.82
24201;BMP280;2801;50.972;7.856;2022-10-16T05:53:46;97315.88;;;13.81
24201;BMP280;2801;50.972;7.856;2022-10-16T05:56:13;97304.88;;;13.86
24201;BMP280;2801;50.972;7.856;2022-10-16T05:58:40;97312.25;;;13.89
24201;BMP280;2801;50.972;7.856;2022-10-16T06:01:13;97323.38;;;13.88
24201;BMP280;2801;50.972;7.856;2022-10-16T06:03:40;97341.19;;;13.92
24201;BMP280;2801;50.972;7.856;2022-10-16T06:06:17;97322.66;;;13.91
24201;BMP280;2801;50.972;7.856;2022-10-16T06:08:47;97327.81;;;13.96
24201;BMP280;2801;50.972;7.856;2022-10-16T06:11:26;97330.16;;;13.97
24201;BMP280;2801;50.972;7.856;2022-10-16T06:13:57;97331.03;;;14.01
24201;BMP280;2801;50.972;7.856;2022-10-16T06:16:26;97331.03;;;14.01
24201;BMP280;2801;50.972;7.856;2022-10-16T06:18:54;97339.66;;;14.07
24201;BMP280;2801;50.972;7.856;2022-10-16T06:21:25;97352.06;;;14.11
24201;BMP280;2801;50.972;7.856;2022-10-16T06:23:53;97342.41;;;14.10
24201;BMP280;2801;50.972;7.856;2022-10-16T06:26:23;97355.28;;;14.17
24201;BMP280;2801;50.972;7.856;2022-10-16T06:28:50;97348.88;;;14.21
24201;BMP280;2801;50.972;7.856;2022-10-16T06:31:17;97352.88;;;14.27
24201;BMP280;2801;50.972;7.856;2022-10-16T06:33:45;97348.94;;;14.25
24201;BMP280;2801;50.972;7.856;2022-10-16T06:36:16;97350.59;;;14.29
24201;BMP280;2801;50.972;7.856;2022-10-16T06:38:44;97365.41;;;14.35
24201;BMP280;2801;50.972;7.856;2022-10-16T06:41:14;97368.53;;;14.37
24201;BMP280;2801;50.972;7.856;2022-10-16T06:43:42;97360.44;;;14.37
24201;BMP280;2801;50.972;7.856;2022-10-16T06:46:11;97355.66;;;14.31
24201;BMP280;2801;50.972;7.856;2022-10-16T06:48:39;97369.72;;;14.40
24201;BMP280;2801;50.972;7.856;2022-10-16T06:51:09;97377.06;;;14.39
24201;BMP280;2801;50.972;7.856;2022-10-16T06:53:40;97369.50;;;14.29
24201;BMP280;2801;50.972;7.856;2022-10-16T06:56:28;97386.88;;;14.32
24201;BMP280;2801;50.972;7.856;2022-10-16T06:58:57;97387.94;;;14.27
24201;BMP280;2801;50.972;7.856;2022-10-16T07:01:24;97398.72;;;14.27
24201;BMP280;2801;50.972;7.856;2022-10-16T07:03:52;97402.72;;;14.33
24201;BMP280;2801;50.972;7.856;2022-10-16T07:06:22;97415.09;;;14.34
24201;BMP280;2801;50.972;7.856;2022-10-16T07:08:50;97417.41;;;14.36
24201;BMP280;2801;50.972;7.856;2022-10-16T07:11:20;97420.56;;;14.38
24201;BMP280;2801;50.972;7.856;2022-10-16T07:13:49;97416.72;;;14.39
24201;BMP280;2801;50.972;7.856;2022-10-16T07:16:27;97426.81;;;14.42
24201;BMP280;2801;50.972;7.856;2022-10-16T07:18:59;97443.19;;;14.49
24201;BMP280;2801;50.972;7.856;2022-10-16T07:21:33;97441.00;;;14.54
24201;BMP280;2801;50.972;7.856;2022-10-16T07:24:11;97436.66;;;14.65
24201;BMP280;2801;50.972;7.856;2022-10-16T07:26:40;97438.66;;;14.68
24201;BMP280;2801;50.972;7.856;2022-10-16T07:29:13;97450.47;;;14.79
24201;BMP280;2801;50.972;7.856;2022-10-16T07:31:40;97450.28;;;14.88
24201;BMP280;2801;50.972;7.856;2022-10-16T07:34:10;97455.94;;;14.99
24201;BMP280;2801;50.972;7.856;2022-10-16T07:36:37;97440.91;;;15.17
24201;BMP280;2801;50.972;7.856;2022-10-16T07:39:04;97450.47;;;15.30
24201;BMP280;2801;50.972;7.856;2022-10-16T07:41:31;97460.31;;;15.38
24201;BMP280;2801;50.972;7.856;2022-10-16T07:43:59;97465.00;;;15.41
24201;BMP280;2801;50.972;7.856;2022-10-16T07:46:28;97470.75;;;15.39
24201;BMP280;2801;50.972;7.856;2022-10-16T07:48:54;97488.25;;;15.45
24201;BMP280;2801;50.972;7.856;2022-10-16T07:51:24;97482.59;;;15.50
24201;BMP280;2801;50.972;7.856;2022-10-16T07:53:52;97484.13;;;15.51
24201;BMP280;2801;50.972;7.856;2022-10-16T07:56:20;97487.63;;;15.52
24201;BMP280;2801;50.972;7.856;2022-10-16T07:58:48;97486.13;;;15.54
24201;BMP280;2801;50.972;7.856;2022-10-16T08:01:17;97491.97;;;15.56
24201;BMP280;2801;50.972;7.856;2022-10-16T08:03:51;97502.91;;;15.63
24201;BMP280;2801;50.972;7.856;2022-10-16T08:06:21;97507.63;;;15.66
24201;BMP280;2801;50.972;7.856;2022-10-16T08:08:55;97511.03;;;15.63
24201;BMP280;2801;50.972;7.856;2022-10-16T08:11:21;97517.56;;;15.62
24201;BMP280;2801;50.972;7.856;2022-10-16T08:13:49;97513.94;;;15.55
24201;BMP280;2801;50.972;7.856;2022-10-16T08:16:16;97519.84;;;15.60
24201;BMP280;2801;50.972;7.856;2022-10-16T08:18:43;97511.50;;;15.50
24201;BMP280;2801;50.972;7.856;2022-10-16T08:21:15;97536.84;;;15.61
24201;BMP280;2801;50.972;7.856;2022-10-16T08:23:47;97530.03;;;15.67
24201;BMP280;2801;50.972;7.856;2022-10-16T08:26:22;97529.91;;;15.79
24201;BMP280;2801;50.972;7.856;2022-10-16T08:28:50;97544.28;;;15.83
24201;BMP280;2801;50.972;7.856;2022-10-16T08:31:18;97540.06;;;15.85
24201;BMP280;2801;50.972;7.856;2022-10-16T08:33:45;97547.53;;;15.92
24201;BMP280;2801;50.972;7.856;2022-10-16T08:36:15;97546.13;;;15.98
24201;BMP280;2801;50.972;7.856;2022-10-16T08:38:42;97545.06;;;16.21
24201;BMP280;2801;50.972;7.856;2022-10-16T08:47:42;97553.63;;;17.32
24201;BMP280;2801;50.972;7.856;2022-10-16T08:50:17;97545.72;;;18.02
24201;BMP280;2801;50.972;7.856;2022-10-16T08:52:45;97538.19;;;18.91
24201;BMP280;2801;50.972;7.856;2022-10-16T08:55:44;97546.19;;;19.75
24201;BMP280;2801;50.972;7.856;2022-10-16T08:58:19;97541.00;;;20.20
24201;BMP280;2801;50.972;7.856;2022-10-16T09:00:53;97536.72;;;20.23
24201;BMP280;2801;50.972;7.856;2022-10-16T09:06:50;97558.13;;;19.60
24201;BMP280;2801;50.972;7.856;2022-10-16T09:18:12;97562.97;;;18.50
24201;BMP280;2801;50.972;7.856;2022-10-16T09:21:08;97566.09;;;18.18
24201;BMP280;2801;50.972;7.856;2022-10-16T09:23:37;97575.69;;;18.12
24201;BMP280;2801;50.972;7.856;2022-10-16T09:26:10;97577.31;;;17.87
24201;BMP280;2801;50.972;7.856;2022-10-16T09:28:37;97576.41;;;17.80
24201;BMP280;2801;50.972;7.856;2022-10-16T09:31:04;97573.47;;;17.62
24201;BMP280;2801;50.972;7.856;2022-10-16T09:33:39;97588.56;;;17.63
24201;BMP280;2801;50.972;7.856;2022-10-16T09:36:08;97587.34;;;17.57
24201;BMP280;2801;50.972;7.856;2022-10-16T09:38:36;97587.50;;;17.45
24201;BMP280;2801;50.972;7.856;2022-10-16T09:41:17;97596.03;;;17.44
24201;BMP280;2801;50.972;7.856;2022-10-16T09:43:54;97594.81;;;17.41
24201;BMP280;2801;50.972;7.856;2022-10-16T09:46:27;97584.34;;;17.40
24201;BMP280;2801;50.972;7.856;2022-10-16T09:49:22;97588.47;;;17.56
24201;BMP280;2801;50.972;7.856;2022-10-16T09:52:03;97584.72;;;17.64
24201;BMP280;2801;50.972;7.856;2022-10-16T09:54:30;97586.34;;;17.69
24201;BMP280;2801;50.972;7.856;2022-10-16T09:57:10;97594.06;;;17.67
24201;BMP280;2801;50.972;7.856;2022-10-16T09:59:57;97588.56;;;17.63
24201;BMP280;2801;50.972;7.856;2022-10-16T10:02:38;97592.94;;;17.71
24201;BMP280;2801;50.972;7.856;2022-10-16T10:05:18;97594.25;;;17.81
24201;BMP280;2801;50.972;7.856;2022-10-16T10:07:58;97601.72;;;17.87
24201;BMP280;2801;50.972;7.856;2022-10-16T10:10:29;97606.00;;;17.88
24201;BMP280;2801;50.972;7.856;2022-10-16T10:12:57;97599.03;;;17.91
24201;BMP280;2801;50.972;7.856;2022-10-16T10:15:25;97601.28;;;17.85
24201;BMP280;2801;50.972;7.856;2022-10-16T10:17:57;97602.81;;;17.83
24201;BMP280;2801;50.972;7.856;2022-10-16T10:20:33;97607.44;;;17.82
24201;BMP280;2801;50.972;7.856;2022-10-16T10:23:20;97597.38;;;17.83
24201;BMP280;2801;50.972;7.856;2022-10-16T10:26:18;97595.94;;;17.89
24201;BMP280;2801;50.972;7.856;2022-10-16T10:29:08;97598.13;;;18.09
24201;BMP280;2801;50.972;7.856;2022-10-16T10:31:47;97603.72;;;18.23
24201;BMP280;2801;50.972;7.856;2022-10-16T10:40:15;97595.53;;;18.46
24201;BMP280;2801;50.972;7.856;2022-10-16T10:45:47;97584.66;;;18.46
24201;BMP280;2801;50.972;7.856;2022-10-16T10:48:43;97580.13;;;18.57
24201;BMP280;2801;50.972;7.856;2022-10-16T10:54:31;97580.25;;;18.71
24201;BMP280;2801;50.972;7.856;2022-10-16T11:03:03;97603.66;;;18.83
24201;BMP280;2801;50.972;7.856;2022-10-16T11:09:00;97602.59;;;18.91
24201;BMP280;2801;50.972;7.856;2022-10-16T11:11:35;97605.78;;;19.00
24201;BMP280;2801;50.972;7.856;2022-10-16T11:19:42;97596.81;;;18.96
24201;BMP280;2801;50.972;7.856;2022-10-16T11:22:33;97607.66;;;18.96
24201;BMP280;2801;50.972;7.856;2022-10-16T11:25:16;97609.28;;;19.00
24201;BMP280;2801;50.972;7.856;2022-10-16T11:28:11;97594.53;;;19.01
24201;BMP280;2801;50.972;7.856;2022-10-16T11:30:55;97593.41;;;19.02
24201;BMP280;2801;50.972;7.856;2022-10-16T11:33:39;97593.47;;;19.13
24201;BMP280;2801;50.972;7.856;2022-10-16T11:36:28;97591.66;;;19.24
24201;BMP280;2801;50.972;7.856;2022-10-16T11:39:20;97586.22;;;19.24
24201;BMP280;2801;50.972;7.856;2022-10-16T11:47:45;97602.47;;;19.20
24201;BMP280;2801;50.972;7.856;2022-10-16T11:50:43;97603.31;;;19.24
24201;BMP280;2801;50.972;7.856;2022-10-16T11:56:22;97604.97;;;19.36
24201;BMP280;2801;50.972;7.856;2022-10-16T11:59:18;97613.88;;;19.33
24201;BMP280;2801;50.972;7.856;2022-10-16T12:02:03;97613.91;;;19.36
24201;BMP280;2801;50.972;7.856;2022-10-16T12:04:50;97611.63;;;19.42
24201;BMP280;2801;50.972;7.856;2022-10-16T12:07:35;97611.63;;;19.42
24201;BMP280;2801;50.972;7.856;2022-10-16T12:10:28;97609.66;;;19.39
24201;BMP280;2801;50.972;7.856;2022-10-16T12:12:58;97614.63;;;19.30
24201;BMP280;2801;50.972;7.856;2022-10-16T12:15:30;97608.25;;;19.15
24201;BMP280;2801;50.972;7.856;2022-10-16T12:18:25;97617.88;;;19.06
24201;BMP280;2801;50.972;7.856;2022-10-16T12:20:59;97625.56;;;18.97
24201;BMP280;2801;50.972;7.856;2022-10-16T12:23:32;97629.81;;;18.98
24201;BMP280;2801;50.972;7.856;2022-10-16T12:26:00;97625.50;;;18.93
24201;BMP280;2801;50.972;7.856;2022-10-16T12:28:31;97623.94;;;18.92
24201;BMP280;2801;50.972;7.856;2022-10-16T12:31:08;97614.63;;;18.93
24201;BMP280;2801;50.972;7.856;2022-10-16T12:33:59;97622.50;;;19.02
24201;BMP280;2801;50.972;7.856;2022-10-16T12:36:33;97626.41;;;19.04
24201;BMP280;2801;50.972;7.856;2022-10-16T12:39:01;97629.94;;;19.08
24201;BMP280;2801;50.972;7.856;2022-10-16T12:41:35;97634.25;;;19.13
24201;BMP280;2801;50.972;7.856;2022-10-16T12:44:04;97629.56;;;19.13
24201;BMP280;2801;50.972;7.856;2022-10-16T12:51:42;97624.56;;;19.15
24201;BMP280;2801;50.972;7.856;2022-10-16T12:54:28;97628.38;;;19.07
24201;BMP280;2801;50.972;7.856;2022-10-16T13:02:53;97629.94;;;19.08
24201;BMP280;2801;50.972;7.856;2022-10-16T13:17:09;97629.75;;;18.91
24201;BMP280;2801;50.972;7.856;2022-10-16T13:20:14;97639.44;;;18.88
24201;BMP280;2801;50.972;7.856;2022-10-16T13:28:32;97629.81;;;18.98
24201;BMP280;2801;50.972;7.856;2022-10-16T13:31:02;97622.03;;;18.96
24201;BMP280;2801;50.972;7.856;2022-10-16T13:33:39;97627.88;;;18.98
24201;BMP280;2801;50.972;7.856;2022-10-16T13:36:06;97633.00;;;19.03
24201;BMP280;2801;50.972;7.856;2022-10-16T13:38:36;97629.16;;;19.08
24201;BMP280;2801;50.972;7.856;2022-10-16T13:41:16;97630.66;;;19.05
24201;BMP280;2801;50.972;7.856;2022-10-16T13:43:47;97631.09;;;19.11
24201;BMP280;2801;50.972;7.856;2022-10-16T13:46:20;97633.88;;;19.14
24201;BMP280;2801;50.972;7.856;2022-10-16T13:49:11;97645.13;;;19.13
24201;BMP280;2801;50.972;7.856;2022-10-16T13:51:38;97645.50;;;19.15
24201;BMP280;2801;50.972;7.856;2022-10-16T13:54:07;97633.13;;;19.17
24201;BMP280;2801;50.972;7.856;2022-10-16T13:56:35;97640.88;;;19.15
24201;BMP280;2801;50.972;7.856;2022-10-16T13:59:26;97649.75;;;19.12
24201;BMP280;2801;50.972;7.856;2022-10-16T14:01:57;97656.34;;;19.11
24201;BMP280;2801;50.972;7.856;2022-10-16T14:04:32;97657.91;;;19.12
24201;BMP280;2801;50.972;7.856;2022-10-16T14:06:59;97654.44;;;19.12
24201;BMP280;2801;50.972;7.856;2022-10-16T14:09:29;97657.59;;;19.17
24201;BMP280;2801;50.972;7.856;2022-10-16T14:12:06;97653.28;;;19.13
24201;BMP280;2801;50.972;7.856;2022-10-16T14:14:44;97646.53;;;19.00
24201;BMP280;2801;50.972;7.856;2022-10-16T14:17:30;97648.88;;;19.01
24201;BMP280;2801;50.972;7.856;2022-10-16T14:20:00;97637.25;;;19.04
24201;BMP280;2801;50.972;7.856;2022-10-16T14:22:38;97643.78;;;18.96
24201;BMP280;2801;50.972;7.856;2022-10-16T14:30:55;97638.25;;;18.86
24201;BMP280;2801;50.972;7.856;2022-10-16T14:33:32;97643.31;;;18.87
24201;BMP280;2801;50.972;7.856;2022-10-16T14:36:13;97644.50;;;18.90
24201;BMP280;2801;50.972;7.856;2022-10-16T14:39:01;97646.78;;;18.88
24201;BMP280;2801;50.972;7.856;2022-10-16T14:41:32;97633.56;;;18.86
24201;BMP280;2801;50.972;7.856;2022-10-16T14:44:04;97650.66;;;18.87
24201;BMP280;2801;50.972;7.856;2022-10-16T14:46:35;97650.66;;;18.83
24201;BMP280;2801;50.972;7.856;2022-10-16T14:51:41;97646.63;;;18.74
24201;BMP280;2801;50.972;7.856;2022-10-16T14:54:09;97637.66;;;18.70
24201;BMP280;2801;50.972;7.856;2022-10-16T14:56:58;97627.94;;;18.65
24201;BMP280;2801;50.972;7.856;2022-10-16T14:59:33;97612.63;;;18.50
24201;BMP280;2801;50.972;7.856;2022-10-16T15:02:30;97627.41;;;18.53
24201;BMP280;2801;50.972;7.856;2022-10-16T15:04:58;97622.59;;;18.43
24201;BMP280;2801;50.972;7.856;2022-10-16T15:07:28;97638.91;;;18.43
24201;BMP280;2801;50.972;7.856;2022-10-16T15:09:55;97642.34;;;18.40
24201;BMP280;2801;50.972;7.856;2022-10-16T15:12:23;97646.59;;;18.37
24201;BMP280;2801;50.972;7.856;2022-10-16T15:14:50;97641.97;;;18.41
24201;BMP280;2801;50.972;7.856;2022-10-16T15:17:16;97624.38;;;18.32
24201;BMP280;2801;50.972;7.856;2022-10-16T15:19:47;97618.25;;;18.35
24201;BMP280;2801;50.972;7.856;2022-10-16T15:22:14;97621.03;;;18.38
24201;BMP280;2801;50.972;7.856;2022-10-16T15:24:41;97623.41;;;18.43
24201;BMP280;2801;50.972;7.856;2022-10-16T15:27:08;97625.28;;;18.39
24201;BMP280;2801;50.972;7.856;2022-10-16T15:29:35;97631.50;;;18.40
24201;BMP280;2801;50.972;7.856;2022-10-16T15:32:02;97637.72;;;18.40
24201;BMP280;2801;50.972;7.856;2022-10-16T15:34:29;97639.53;;;18.33
24201;BMP280;2801;50.972;7.856;2022-10-16T15:36:55;97648.31;;;18.23
24201;BMP280;2801;50.972;7.856;2022-10-16T15:39:24;97648.63;;;18.17
24201;BMP280;2801;50.972;7.856;2022-10-16T15:41:51;97653.59;;;18.12
24201;BMP280;2801;50.972;7.856;2022-10-16T15:44:20;97644.25;;;18.09
24201;BMP280;2801;50.972;7.856;2022-10-16T15:46:49;97650.34;;;18.03
24201;BMP280;2801;50.972;7.856;2022-10-16T15:49:16;97644.00;;;17.92
24201;BMP280;2801;50.972;7.856;2022-10-16T15:51:43;97660.63;;;17.90
24201;BMP280;2801;50.972;7.856;2022-10-16T15:54:10;97662.47;;;17.83
24201;BMP280;2801;50.972;7.856;2022-10-16T15:56:36;97666.22;;;17.75
24201;BMP280;2801;50.972;7.856;2022-10-16T15:59:04;97659.53;;;17.69
24201;BMP280;2801;50.972;7.856;2022-10-16T16:01:35;97659.00;;;17.60
24201;BMP280;2801;50.972;7.856;2022-10-16T16:04:02;97665.88;;;17.54
24201;BMP280;2801;50.972;7.856;2022-10-16T16:06:41;97663.03;;;17.47
24201;BMP280;2801;50.972;7.856;2022-10-16T16:09:13;97668.09;;;17.48
24201;BMP280;2801;50.972;7.856;2022-10-16T16:11:40;97665.72;;;17.43
24201;BMP280;2801;50.972;7.856;2022-10-16T16:14:10;97666.00;;;17.38
24201;BMP280;2801;50.972;7.856;2022-10-16T16:16:38;97663.56;;;17.33
24201;BMP280;2801;50.972;7.856;2022-10-16T16:19:05;97657.63;;;17.24
24201;BMP280;2801;50.972;7.856;2022-10-16T16:21:37;97658.31;;;17.21
24201;BMP280;2801;50.972;7.856;2022-10-16T16:24:04;97664.47;;;17.18
24201;BMP280;2801;50.972;7.856;2022-10-16T16:26:35;97665.22;;;17.15
24201;BMP280;2801;50.972;7.856;2022-10-16T16:29:04;97661.56;;;17.08
24201;BMP280;2801;50.972;7.856;2022-10-16T16:31:32;97668.91;;;17.07
24201;BMP280;2801;50.972;7.856;2022-10-16T16:34:00;97670.41;;;17.05
24201;BMP280;2801;50.972;7.856;2022-10-16T16:36:26;97666.44;;;16.99